Time;durP1;ratioP1;P1;durP2;ratioP2;P2;SDS_P1;SDS_P2;PMS_P1;PMS_P2;Temp;Humidity;BMP_temperature;BMP_pressure;BME280_temperature;BME280_humidity;BME280_pressure;Samples;Min_cycle;Max_cycle;Signal;HPM_P1;HPM_P2
2022/09/11 00:01:46;;;;;;;2.55;0.47;;;;;;;26.74;44.88;101621.16;5063795;28;20025;-47
2022/09/11 00:04:14;;;;;;;1.10;0.50;;;;;;;26.71;44.88;101604.44;5064352;28;20028;-51
2022/09/11 00:06:43;;;;;;;1.05;0.60;;;;;;;26.69;44.82;101610.56;5069224;28;20028;-47
2022/09/11 00:09:11;;;;;;;0.88;0.50;;;;;;;26.71;44.83;101599.19;5070853;28;20032;-48
2022/09/11 00:11:41;;;;;;;2.28;0.40;;;;;;;26.73;44.68;101614.13;5070290;28;20107;-50
2022/09/11 00:14:12;;;;;;;0.68;0.50;;;;;;;26.73;44.61;101608.84;5070240;28;20025;-47
2022/09/11 00:16:43;;;;;;;0.40;0.38;;;;;;;26.72;44.63;101595.69;5074329;28;20895;-47
2022/09/11 00:19:14;;;;;;;1.60;0.90;;;;;;;26.70;44.63;101598.28;5074313;28;20588;-47
2022/09/11 00:21:42;;;;;;;0.50;0.30;;;;;;;26.71;44.93;101599.19;5077047;28;20390;-47
2022/09/11 00:24:11;;;;;;;1.08;0.55;;;;;;;26.70;44.83;101587.75;5076550;28;20356;-50
2022/09/11 00:26:41;;;;;;;0.38;0.25;;;;;;;26.74;44.88;101599.19;5072797;28;20119;-50
2022/09/11 00:29:10;;;;;;;1.67;0.77;;;;;;;26.72;44.70;101600.94;5074828;28;20043;-51
2022/09/11 00:31:39;;;;;;;0.68;0.55;;;;;;;26.73;44.91;101590.44;5072017;28;20032;-50
2022/09/11 00:34:07;;;;;;;0.90;0.35;;;;;;;26.68;44.71;101585.13;5074762;28;20040;-50
2022/09/11 00:36:38;;;;;;;1.58;0.65;;;;;;;26.65;44.74;101579.81;5073133;28;20201;-48
2022/09/11 00:39:06;;;;;;;0.82;0.45;;;;;;;26.72;44.82;101586.03;5073895;28;20131;-49
2022/09/11 00:41:38;;;;;;;2.80;0.70;;;;;;;26.67;44.79;101582.44;5068868;28;20033;-49
2022/09/11 00:44:08;;;;;;;0.40;0.40;;;;;;;26.67;44.74;101585.09;5073899;28;20025;-51
2022/09/11 00:46:50;;;;;;;0.50;0.40;;;;;;;26.67;44.78;101578.09;5069878;28;20193;-50
2022/09/11 00:49:26;;;;;;;0.93;0.50;;;;;;;26.71;44.84;101578.13;5066447;28;20472;-50
2022/09/11 00:52:04;;;;;;;0.95;0.40;;;;;;;26.65;45.05;101579.81;5077584;28;20526;-51
2022/09/11 00:54:35;;;;;;;1.10;0.45;;;;;;;26.65;44.94;101574.56;5076901;28;20125;-50
2022/09/11 00:57:07;;;;;;;0.75;0.40;;;;;;;26.62;44.93;101577.13;5076142;28;20032;-51
2022/09/11 00:59:35;;;;;;;0.35;0.35;;;;;;;26.64;44.79;101577.19;5054747;28;20530;-49
2022/09/11 01:02:04;;;;;;;1.15;0.43;;;;;;;26.60;44.99;101570.09;5073427;28;20089;-48
2022/09/11 01:04:33;;;;;;;2.08;0.40;;;;;;;26.59;45.20;101563.06;5070960;28;20574;-51
2022/09/11 01:07:02;;;;;;;0.50;0.50;;;;;;;26.57;45.25;101557.78;5072375;28;20158;-50
2022/09/11 01:09:32;;;;;;;0.80;0.40;;;;;;;26.57;45.15;101556.91;5070067;28;20028;-51
2022/09/11 01:12:19;;;;;;;0.38;0.30;;;;;;;26.56;45.22;101553.38;5071602;28;20111;-51
2022/09/11 01:14:52;;;;;;;1.27;0.38;;;;;;;26.62;44.81;101549.97;5056084;28;20540;-51
2022/09/11 01:17:32;;;;;;;0.70;0.30;;;;;;;26.57;45.20;101549.00;5057939;28;20443;-51
2022/09/11 01:20:32;;;;;;;0.63;0.20;;;;;;;26.54;45.10;101542.84;5058750;28;20025;-51
2022/09/11 01:23:31;;;;;;;0.65;0.52;;;;;;;26.59;44.92;101534.13;5049126;28;20128;-51
2022/09/11 01:26:19;;;;;;;1.15;0.52;;;;;;;26.62;44.90;101542.06;5050352;28;20040;-50
2022/09/11 01:28:52;;;;;;;1.35;0.35;;;;;;;26.59;45.05;101534.13;5064085;28;20129;-50
2022/09/11 01:31:25;;;;;;;0.73;0.43;;;;;;;26.57;45.05;101539.34;5073672;28;20031;-51
2022/09/11 01:34:02;;;;;;;1.75;0.43;;;;;;;26.51;45.27;101537.53;5056829;28;20039;-52
2022/09/11 01:36:34;;;;;;;2.42;0.40;;;;;;;26.56;45.32;101531.47;5047825;28;20117;-49
2022/09/11 01:39:04;;;;;;;0.80;0.38;;;;;;;26.47;45.59;101530.50;5047857;28;20040;-50
2022/09/11 01:41:39;;;;;;;0.80;0.25;;;;;;;26.47;45.30;101533.13;5054287;28;20036;-53
2022/09/11 01:44:12;;;;;;;1.08;0.50;;;;;;;26.52;45.22;101533.19;5077653;28;20036;-52
2022/09/11 01:46:48;;;;;;;1.77;0.43;;;;;;;26.50;45.14;101530.50;5059148;28;20474;-53
2022/09/11 01:49:19;;;;;;;1.98;0.30;;;;;;;26.48;45.33;101526.97;5071596;28;20032;-51
2022/09/11 01:51:50;;;;;;;0.52;0.30;;;;;;;26.45;45.52;101523.44;5071637;28;20032;-50
2022/09/11 01:54:21;;;;;;;0.28;0.28;;;;;;;26.44;45.47;101519.94;5055036;28;20405;-50
2022/09/11 01:56:55;;;;;;;2.00;0.40;;;;;;;26.40;45.57;101526.03;5068856;28;20119;-50
2022/09/11 01:59:29;;;;;;;0.55;0.20;;;;;;;26.45;45.34;101526.06;5071188;28;20028;-50
2022/09/11 02:02:05;;;;;;;0.80;0.47;;;;;;;26.43;45.48;101526.06;5070866;28;20032;-50
2022/09/11 02:04:39;;;;;;;1.45;0.47;;;;;;;26.45;45.53;101515.56;5055748;28;20064;-48
2022/09/11 02:07:13;;;;;;;3.20;0.35;;;;;;;26.46;45.40;101522.56;5072341;28;21019;-52
2022/09/11 02:09:47;;;;;;;0.40;0.20;;;;;;;26.42;45.40;101521.66;5069648;28;20021;-47
2022/09/11 02:12:17;;;;;;;2.00;0.30;;;;;;;26.45;45.29;101510.28;5053781;28;20549;-46
2022/09/11 02:14:49;;;;;;;0.30;0.30;;;;;;;26.45;45.30;101512.91;5077303;28;20123;-50
2022/09/11 02:17:41;;;;;;;1.23;0.50;;;;;;;26.45;45.37;101510.28;5070880;28;20032;-49
2022/09/11 02:20:10;;;;;;;0.38;0.30;;;;;;;26.41;45.62;101505.84;5046381;28;20045;-47
2022/09/11 02:22:39;;;;;;;2.70;0.40;;;;;;;26.40;45.37;101504.97;5073535;28;20032;-49
2022/09/11 02:25:06;;;;;;;1.15;0.40;;;;;;;26.44;45.56;101503.25;5070170;28;20509;-54
2022/09/11 02:27:35;;;;;;;2.65;0.45;;;;;;;26.39;45.65;101505.84;5057130;28;20028;-53
2022/09/11 02:30:05;;;;;;;0.25;0.25;;;;;;;26.37;45.76;101505.84;5060620;28;20724;-50
2022/09/11 02:32:36;;;;;;;0.30;0.28;;;;;;;26.46;45.68;101509.44;5067450;28;20040;-51
2022/09/11 02:35:05;;;;;;;0.93;0.25;;;;;;;26.38;45.42;101511.97;5052558;28;20034;-49
2022/09/11 02:37:42;;;;;;;1.15;0.63;;;;;;;26.34;45.65;101507.53;5069446;28;20115;-51
2022/09/11 02:40:37;;;;;;;0.45;0.20;;;;;;;26.35;45.59;101511.94;5070415;28;20039;-48
2022/09/11 02:43:17;;;;;;;0.73;0.20;;;;;;;26.41;45.49;101497.97;5069924;28;20121;-49
2022/09/11 02:45:57;;;;;;;0.45;0.20;;;;;;;26.39;45.53;101501.44;5053176;28;20055;-51
2022/09/11 02:48:56;;;;;;;0.32;0.28;;;;;;;26.39;45.40;101495.31;5070662;28;20502;-51
2022/09/11 02:51:49;;;;;;;0.77;0.20;;;;;;;26.31;45.54;101481.22;5040368;28;20029;-50
2022/09/11 02:54:45;;;;;;;0.30;0.20;;;;;;;26.36;45.65;101490.03;5055432;28;20039;-50
2022/09/11 02:57:19;;;;;;;1.55;0.30;;;;;;;26.36;45.33;101493.56;5066044;28;20040;-51
2022/09/11 02:59:54;;;;;;;1.33;0.25;;;;;;;26.33;45.56;101492.63;5070415;28;20040;-49
2022/09/11 03:02:24;;;;;;;0.60;0.35;;;;;;;26.31;45.54;101479.47;5068176;28;20134;-51
2022/09/11 03:04:53;;;;;;;0.47;0.28;;;;;;;26.35;45.56;101488.25;5069420;28;20021;-50
2022/09/11 03:07:21;;;;;;;1.58;0.20;;;;;;;26.27;45.45;101477.66;5069823;28;20043;-51
2022/09/11 03:09:50;;;;;;;0.25;0.25;;;;;;;26.31;45.43;101471.56;5075172;28;20031;-48
2022/09/11 03:12:19;;;;;;;0.20;0.10;;;;;;;26.32;45.45;101473.34;5075328;28;20020;-51
2022/09/11 03:14:48;;;;;;;0.47;0.20;;;;;;;26.34;45.41;101475.97;5074758;28;20024;-53
2022/09/11 03:17:16;;;;;;;0.28;0.28;;;;;;;26.21;45.50;101459.19;5070406;28;20039;-51
2022/09/11 03:19:45;;;;;;;0.38;0.20;;;;;;;26.34;45.51;101478.59;5075351;28;20023;-49
2022/09/11 03:22:13;;;;;;;2.92;0.20;;;;;;;26.33;45.34;101475.09;5068468;28;20155;-49
2022/09/11 03:24:42;;;;;;;0.57;0.20;;;;;;;26.35;45.39;101473.38;5051022;28;20467;-46
2022/09/11 03:27:10;;;;;;;0.63;0.10;;;;;;;26.27;45.38;101463.63;5069497;28;20398;-47
2022/09/11 03:29:39;;;;;;;0.82;0.20;;;;;;;26.28;45.70;101471.53;5070455;28;20051;-51
2022/09/11 03:32:08;;;;;;;1.38;0.15;;;;;;;26.29;45.44;101461.91;5075741;28;20518;-54
2022/09/11 03:34:37;;;;;;;0.50;0.20;;;;;;;26.26;45.61;101461.88;5068717;28;20043;-50
2022/09/11 03:37:06;;;;;;;0.80;0.20;;;;;;;26.28;45.30;101463.63;5069130;28;20395;-49
2022/09/11 03:39:34;;;;;;;0.73;0.10;;;;;;;26.28;45.65;101466.25;5070185;28;20028;-52
2022/09/11 03:42:03;;;;;;;0.93;0.30;;;;;;;26.28;45.62;101461.00;5069951;28;20028;-50
2022/09/11 03:44:32;;;;;;;0.22;0.15;;;;;;;26.18;45.80;101454.75;5071240;28;20067;-51
2022/09/11 03:47:01;;;;;;;1.80;0.20;;;;;;;26.23;45.59;101458.34;5070176;28;20039;-50
2022/09/11 03:49:29;;;;;;;0.40;0.20;;;;;;;26.19;45.66;101456.53;5069991;28;20064;-46
2022/09/11 03:51:58;;;;;;;0.80;0.35;;;;;;;26.15;45.92;101459.09;5069667;28;20066;-50
2022/09/11 03:54:26;;;;;;;0.22;0.13;;;;;;;26.21;45.77;101453.94;5062847;28;20033;-51
2022/09/11 03:56:55;;;;;;;0.80;0.40;;;;;;;26.10;46.04;101443.25;5069632;28;20033;-47
2022/09/11 03:59:24;;;;;;;0.38;0.10;;;;;;;26.11;45.97;101447.69;5069114;28;20028;-48
2022/09/11 04:01:53;;;;;;;2.70;0.15;;;;;;;26.12;46.04;101451.19;5069022;28;20024;-50
2022/09/11 04:04:21;;;;;;;0.55;0.20;;;;;;;26.08;45.87;101444.97;5069057;28;20036;-51
2022/09/11 04:06:50;;;;;;;0.90;0.15;;;;;;;26.08;46.18;101448.47;5068902;28;20039;-47
2022/09/11 04:09:18;;;;;;;1.10;0.40;;;;;;;26.14;45.84;101446.81;5068411;28;20024;-50
2022/09/11 04:11:46;;;;;;;0.43;0.15;;;;;;;26.15;45.89;101441.56;5070279;28;20028;-50
2022/09/11 04:14:15;;;;;;;1.58;0.17;;;;;;;26.22;45.75;101445.19;5070443;28;20087;-46
2022/09/11 04:16:44;;;;;;;0.80;0.20;;;;;;;26.19;45.79;101443.38;5070864;28;20050;-46
2022/09/11 04:19:13;;;;;;;0.30;0.28;;;;;;;26.17;45.78;101444.25;5070745;28;20139;-46
2022/09/11 04:21:41;;;;;;;0.28;0.20;;;;;;;26.20;45.74;101436.38;5069021;28;20024;-47
2022/09/11 04:24:11;;;;;;;0.20;0.20;;;;;;;26.15;45.89;101432.81;5069420;28;20550;-48
2022/09/11 04:26:39;;;;;;;1.60;0.40;;;;;;;26.14;46.05;101433.69;5068920;28;20052;-49
2022/09/11 04:29:08;;;;;;;2.13;0.20;;;;;;;26.08;45.97;101429.22;5069030;28;20095;-51
2022/09/11 04:31:37;;;;;;;0.35;0.20;;;;;;;26.10;45.90;101432.75;5072823;28;20047;-50
2022/09/11 04:34:05;;;;;;;0.52;0.20;;;;;;;26.11;46.07;101430.97;5071365;28;20059;-51
2022/09/11 04:36:34;;;;;;;0.73;0.30;;;;;;;26.06;46.11;101428.31;5054156;28;20037;-49
2022/09/11 04:39:03;;;;;;;1.70;0.30;;;;;;;26.11;45.90;101429.28;5072151;28;20040;-50
2022/09/11 04:41:31;;;;;;;0.10;0.10;;;;;;;26.07;46.19;101430.94;5071666;28;20214;-53
2022/09/11 04:44:00;;;;;;;1.17;0.30;;;;;;;26.05;46.14;101437.06;5064788;28;20029;-51
2022/09/11 04:46:29;;;;;;;1.88;0.30;;;;;;;25.99;45.86;101415.94;5046656;28;20035;-50
2022/09/11 04:48:59;;;;;;;0.20;0.10;;;;;;;26.06;45.85;101436.19;5068248;28;20040;-50
2022/09/11 04:51:29;;;;;;;0.57;0.35;;;;;;;26.15;45.85;101441.56;5072343;28;20051;-49
2022/09/11 04:53:58;;;;;;;0.32;0.20;;;;;;;26.14;45.63;101445.09;5068567;28;20040;-51
2022/09/11 04:56:28;;;;;;;0.30;0.30;;;;;;;26.13;45.66;101442.44;5068856;28;20043;-52
2022/09/11 04:58:59;;;;;;;1.00;0.30;;;;;;;26.13;45.60;101443.34;5068302;28;20058;-52
2022/09/11 05:01:29;;;;;;;0.22;0.22;;;;;;;26.16;45.77;101438.06;5072891;28;20330;-50
2022/09/11 05:03:59;;;;;;;0.57;0.28;;;;;;;26.15;45.81;101432.81;5048269;28;20039;-49
2022/09/11 05:06:29;;;;;;;0.95;0.20;;;;;;;26.11;46.00;101429.28;5074701;28;20034;-51
2022/09/11 05:09:01;;;;;;;3.45;0.20;;;;;;;26.13;45.93;101431.91;5072531;28;20040;-51
2022/09/11 05:11:29;;;;;;;0.30;0.20;;;;;;;26.08;46.04;101434.47;5072380;28;20543;-51
2022/09/11 05:13:58;;;;;;;1.00;0.35;;;;;;;26.03;46.04;101433.53;5067678;28;20029;-48
2022/09/11 05:16:27;;;;;;;3.05;0.30;;;;;;;26.07;46.18;101440.59;5072834;28;20035;-47
2022/09/11 05:18:57;;;;;;;0.80;0.20;;;;;;;25.92;46.53;101429.03;5071761;28;20036;-50
2022/09/11 05:21:26;;;;;;;1.08;0.20;;;;;;;25.91;46.18;101434.25;5069977;28;20106;-47
2022/09/11 05:23:56;;;;;;;0.90;0.30;;;;;;;25.97;46.49;101436.09;5066891;28;20027;-50
2022/09/11 05:26:27;;;;;;;0.43;0.20;;;;;;;26.00;46.32;101436.09;5074582;28;20047;-48
2022/09/11 05:28:56;;;;;;;2.80;0.30;;;;;;;26.01;46.32;101433.50;5073914;28;20036;-51
2022/09/11 05:31:25;;;;;;;0.25;0.25;;;;;;;26.00;46.14;101429.13;5072223;28;20025;-51
2022/09/11 05:33:55;;;;;;;0.70;0.32;;;;;;;26.03;46.06;101433.53;5067390;28;20025;-51
2022/09/11 05:36:23;;;;;;;2.28;0.20;;;;;;;25.99;46.44;101434.34;5068515;28;20028;-53
2022/09/11 05:38:52;;;;;;;1.45;0.32;;;;;;;25.98;46.45;101432.59;5053138;28;20059;-50
2022/09/11 05:41:21;;;;;;;0.50;0.30;;;;;;;25.95;46.63;101446.56;5069023;28;20024;-53
2022/09/11 05:43:48;;;;;;;0.43;0.30;;;;;;;25.90;46.50;101437.72;5071342;28;20499;-50
2022/09/11 05:46:19;;;;;;;0.40;0.40;;;;;;;25.87;46.61;101435.97;5069057;28;20097;-50
2022/09/11 05:48:47;;;;;;;1.38;0.40;;;;;;;25.88;46.75;101437.72;5050122;28;20028;-47
2022/09/11 05:51:20;;;;;;;2.15;0.40;;;;;;;25.90;46.46;101429.84;5074230;28;20475;-48
2022/09/11 05:53:52;;;;;;;1.88;0.40;;;;;;;25.93;46.50;101430.78;5073902;28;20028;-49
2022/09/11 05:56:22;;;;;;;1.00;0.30;;;;;;;25.93;46.32;101433.41;5073588;28;20025;-49
2022/09/11 05:58:51;;;;;;;1.38;0.55;;;;;;;25.97;46.18;101436.97;5071666;28;20028;-48
2022/09/11 06:01:21;;;;;;;1.25;0.40;;;;;;;25.88;46.27;101424.59;5071112;28;20514;-46
2022/09/11 06:03:50;;;;;;;1.92;0.40;;;;;;;25.94;46.42;101442.19;5073460;28;20032;-53
2022/09/11 06:06:20;;;;;;;0.30;0.20;;;;;;;25.91;46.35;101437.78;5073237;28;20047;-47
2022/09/11 06:08:51;;;;;;;0.85;0.45;;;;;;;25.86;46.67;101420.19;5076162;28;20111;-46
2022/09/11 06:11:20;;;;;;;0.77;0.10;;;;;;;25.92;46.67;101429.03;5066407;28;20111;-51
2022/09/11 06:13:49;;;;;;;0.30;0.20;;;;;;;25.76;46.70;101403.41;5072689;28;20054;-48
2022/09/11 06:16:19;;;;;;;0.52;0.25;;;;;;;25.90;46.71;101435.09;5053125;28;20028;-47
2022/09/11 06:18:48;;;;;;;0.17;0.13;;;;;;;25.85;46.61;101431.56;5054284;28;20083;-47
2022/09/11 06:21:19;;;;;;;1.88;0.32;;;;;;;25.88;46.46;101432.47;5070782;28;20390;-50
2022/09/11 06:23:48;;;;;;;2.50;0.38;;;;;;;25.89;46.56;101436.00;5070848;28;20070;-49
2022/09/11 06:26:17;;;;;;;0.40;0.20;;;;;;;25.91;46.47;101439.50;5072470;28;20044;-46
2022/09/11 06:28:46;;;;;;;1.08;0.40;;;;;;;25.93;46.64;101436.06;5070841;28;20035;-47
2022/09/11 06:31:17;;;;;;;2.00;0.40;;;;;;;25.94;46.62;101439.53;5072736;28;20111;-47
2022/09/11 06:33:46;;;;;;;0.47;0.20;;;;;;;25.95;46.50;101433.44;5072500;28;20517;-49
2022/09/11 06:36:16;;;;;;;2.05;0.30;;;;;;;25.99;46.49;101434.34;5068274;28;20954;-52
2022/09/11 06:38:44;;;;;;;1.70;0.50;;;;;;;25.98;46.35;101428.22;5046532;28;20033;-49
2022/09/11 06:41:15;;;;;;;1.63;0.30;;;;;;;25.94;46.72;101427.31;5071416;28;20032;-53
2022/09/11 06:43:43;;;;;;;3.05;0.30;;;;;;;25.95;46.56;101430.78;5076448;28;20024;-57
2022/09/11 06:46:14;;;;;;;2.10;0.32;;;;;;;25.93;46.72;101422.91;5072097;28;20031;-53
2022/09/11 06:48:43;;;;;;;4.57;1.10;;;;;;;25.92;47.00;101425.50;5070108;28;20506;-47
2022/09/11 06:51:17;;;;;;;1.20;0.47;;;;;;;25.85;46.66;101421.06;5069808;28;20032;-48
2022/09/11 06:53:46;;;;;;;0.93;0.50;;;;;;;25.88;47.02;101426.34;5071021;28;20024;-51
2022/09/11 06:56:17;;;;;;;3.38;0.50;;;;;;;25.94;46.51;101424.66;5046216;28;20028;-49
2022/09/11 06:58:46;;;;;;;3.10;0.40;;;;;;;25.99;46.63;101427.34;5077128;28;20035;-48
2022/09/11 07:01:16;;;;;;;3.30;0.30;;;;;;;25.97;46.81;101425.59;5070764;28;20056;-48
2022/09/11 07:03:46;;;;;;;2.10;0.50;;;;;;;25.89;46.85;101422.84;5070382;28;20081;-48
2022/09/11 07:06:17;;;;;;;1.38;0.30;;;;;;;25.99;46.64;101429.09;5058439;28;20025;-46
2022/09/11 07:08:50;;;;;;;2.13;0.50;;;;;;;26.04;46.51;101437.91;5069917;28;20588;-48
2022/09/11 07:11:20;;;;;;;1.30;0.33;;;;;;;26.04;46.61;101433.56;5070444;28;20040;-50
2022/09/11 07:13:48;;;;;;;0.73;0.38;;;;;;;26.03;46.70;101436.16;5070130;28;20479;-49
2022/09/11 07:16:16;;;;;;;2.88;0.35;;;;;;;26.01;46.64;101427.34;5070137;28;20047;-51
2022/09/11 07:18:46;;;;;;;1.02;0.35;;;;;;;26.02;46.59;101431.75;5052161;28;20027;-51
2022/09/11 07:21:20;;;;;;;4.53;0.47;;;;;;;26.07;46.56;101441.44;5068836;28;20080;-50
2022/09/11 07:23:50;;;;;;;1.48;0.50;;;;;;;26.07;46.32;101440.59;5052610;28;20056;-50
2022/09/11 07:26:19;;;;;;;6.13;0.60;;;;;;;26.08;46.49;101437.09;5051204;28;20044;-50
2022/09/11 07:28:49;;;;;;;2.35;0.22;;;;;;;26.08;46.46;101440.59;5069236;28;20047;-47
2022/09/11 07:31:19;;;;;;;1.45;0.40;;;;;;;26.08;46.36;101439.72;5050581;28;20035;-48
2022/09/11 07:33:49;;;;;;;1.50;0.52;;;;;;;26.06;46.59;101436.19;5069052;28;20036;-50
2022/09/11 07:36:19;;;;;;;1.58;0.38;;;;;;;26.09;46.70;101441.50;5069960;28;20596;-50
2022/09/11 07:38:49;;;;;;;3.40;0.40;;;;;;;26.06;46.50;101433.56;5069369;28;20044;-50
2022/09/11 07:41:20;;;;;;;1.17;0.40;;;;;;;26.04;46.44;101432.66;5071115;28;20028;-50
2022/09/11 07:43:52;;;;;;;0.98;0.30;;;;;;;26.04;46.42;101437.91;5050171;28;20032;-48
2022/09/11 07:46:20;;;;;;;1.77;0.40;;;;;;;26.05;46.77;101423.91;5069125;28;20029;-50
2022/09/11 07:48:48;;;;;;;2.78;0.40;;;;;;;26.02;46.71;101429.13;5050297;28;20175;-51
2022/09/11 07:51:18;;;;;;;1.17;0.30;;;;;;;25.97;46.71;101422.94;5063699;28;20320;-50
2022/09/11 07:53:50;;;;;;;0.90;0.52;;;;;;;26.01;46.58;101425.63;5069121;28;20021;-47
2022/09/11 07:56:22;;;;;;;1.25;0.28;;;;;;;26.00;46.63;101417.69;5074856;28;20027;-49
2022/09/11 07:58:52;;;;;;;2.97;0.63;;;;;;;26.07;46.49;101425.69;5074189;28;20081;-48
2022/09/11 08:01:23;;;;;;;2.42;0.68;;;;;;;26.07;46.48;101416.91;5074322;28;20016;-50
2022/09/11 08:04:02;;;;;;;0.77;0.30;;;;;;;26.13;46.16;101427.56;5074294;28;20034;-50
2022/09/11 08:06:33;;;;;;;0.98;0.30;;;;;;;26.16;46.32;101419.66;5053134;28;20028;-46
2022/09/11 08:09:05;;;;;;;0.98;0.40;;;;;;;26.14;46.38;101421.44;5065904;28;20024;-47
2022/09/11 08:11:36;;;;;;;2.42;0.45;;;;;;;26.19;46.35;101416.22;5068499;28;20119;-47
2022/09/11 08:14:06;;;;;;;0.90;0.40;;;;;;;26.31;46.16;101428.63;5069040;28;20031;-47
2022/09/11 08:16:35;;;;;;;1.17;0.45;;;;;;;26.29;46.21;101419.81;5069051;28;20020;-47
2022/09/11 08:19:03;;;;;;;1.23;0.40;;;;;;;26.37;45.97;101426.03;5068788;28;20119;-48
2022/09/11 08:21:32;;;;;;;1.92;0.60;;;;;;;26.48;45.74;101421.75;5062830;28;20109;-48
2022/09/11 08:24:02;;;;;;;3.92;0.63;;;;;;;26.49;45.71;101430.53;5069482;28;20090;-50
2022/09/11 08:26:31;;;;;;;0.95;0.30;;;;;;;26.50;45.74;101432.31;5068241;28;20519;-48
2022/09/11 08:29:00;;;;;;;0.95;0.20;;;;;;;26.47;45.70;101421.75;5071918;28;20044;-47
2022/09/11 08:31:28;;;;;;;2.17;0.55;;;;;;;26.46;45.83;101422.59;5068406;28;20028;-46
2022/09/11 08:33:57;;;;;;;2.08;0.50;;;;;;;26.43;45.79;101405.06;5069597;28;20028;-48
2022/09/11 08:36:29;;;;;;;0.77;0.43;;;;;;;26.55;45.72;101427.97;5067707;28;20144;-47
2022/09/11 08:39:01;;;;;;;1.20;0.35;;;;;;;26.57;45.65;101425.34;5081239;28;20040;-50
2022/09/11 08:41:35;;;;;;;0.90;0.35;;;;;;;26.57;45.88;101430.63;5057239;28;20407;-50
2022/09/11 08:44:10;;;;;;;1.48;0.55;;;;;;;26.48;46.19;101427.00;5075460;28;20028;-47
2022/09/11 08:46:42;;;;;;;2.38;0.30;;;;;;;26.49;46.24;101436.66;5056246;28;20032;-47
2022/09/11 08:49:15;;;;;;;3.53;0.52;;;;;;;26.48;46.09;101445.44;5073278;28;20039;-51
2022/09/11 08:51:45;;;;;;;1.13;0.30;;;;;;;26.44;46.36;101440.13;5069863;28;20103;-50
2022/09/11 08:54:26;;;;;;;1.55;0.32;;;;;;;26.44;46.26;101446.28;5073079;28;20032;-49
2022/09/11 08:57:06;;;;;;;2.25;0.80;;;;;;;26.44;46.14;101438.41;5054705;28;20033;-48
2022/09/11 08:59:57;;;;;;;1.85;0.50;;;;;;;26.43;46.26;101436.63;5076701;28;20055;-49
2022/09/11 09:02:55;;;;;;;3.85;0.70;;;;;;;26.45;45.98;101434.00;5047940;28;20055;-51
2022/09/11 09:05:28;;;;;;;3.80;0.40;;;;;;;26.49;46.18;101438.44;5067039;28;20078;-51
2022/09/11 09:08:00;;;;;;;2.47;0.50;;;;;;;26.42;46.29;101433.97;5051677;28;20028;-49
2022/09/11 09:10:38;;;;;;;1.65;0.30;;;;;;;26.54;46.25;101429.72;5068723;28;20021;-51
2022/09/11 09:13:33;;;;;;;2.78;0.85;;;;;;;26.46;46.66;101426.13;5070744;28;20085;-49
2022/09/11 09:16:21;;;;;;;1.77;0.50;;;;;;;26.49;47.03;101420.00;5056139;28;20032;-45
2022/09/11 09:18:54;;;;;;;2.00;0.50;;;;;;;26.48;46.87;101423.50;5070557;28;20039;-50
2022/09/11 09:21:31;;;;;;;0.70;0.40;;;;;;;26.44;47.25;101430.50;5072830;28;20028;-48
2022/09/11 09:24:03;;;;;;;2.22;0.55;;;;;;;26.53;47.21;101441.09;5050603;28;20471;-51
2022/09/11 09:26:38;;;;;;;3.63;0.70;;;;;;;26.56;47.15;101437.59;5067678;28;20049;-48
2022/09/11 09:29:14;;;;;;;2.85;0.65;;;;;;;26.59;47.33;101436.78;5049440;28;20037;-50
2022/09/11 09:31:44;;;;;;;1.98;0.60;;;;;;;26.49;47.99;101431.41;5052968;28;20504;-50
2022/09/11 09:34:26;;;;;;;4.55;0.70;;;;;;;26.44;47.86;101434.88;5048248;28;20035;-50
2022/09/11 09:37:25;;;;;;;2.35;0.70;;;;;;;26.48;47.81;101437.53;5051521;28;20028;-51
2022/09/11 09:39:53;;;;;;;3.90;0.90;;;;;;;26.49;47.91;101434.03;5067973;28;20471;-48
2022/09/11 09:42:32;;;;;;;2.85;0.65;;;;;;;26.42;47.77;101436.59;5069244;28;20020;-46
2022/09/11 09:45:30;;;;;;;3.20;0.85;;;;;;;26.45;47.99;101440.16;5065887;28;20857;-46
2022/09/11 09:47:59;;;;;;;3.35;0.70;;;;;;;26.51;48.04;101428.81;5067736;28;20031;-48
2022/09/11 09:50:32;;;;;;;4.82;0.60;;;;;;;26.57;47.77;101444.63;5067529;28;20075;-47
2022/09/11 09:53:40;;;;;;;2.70;0.50;;;;;;;26.54;47.95;101436.75;5069442;28;20021;-48
2022/09/11 09:56:09;;;;;;;4.63;0.60;;;;;;;26.61;47.65;101440.31;5053863;28;21087;-50
2022/09/11 09:58:47;;;;;;;1.63;0.55;;;;;;;26.58;47.95;101427.97;5077405;28;20039;-49
2022/09/11 10:01:45;;;;;;;4.38;0.73;;;;;;;26.44;48.31;101433.13;5067697;28;20028;-51
2022/09/11 10:04:18;;;;;;;2.70;0.60;;;;;;;26.51;48.21;101432.31;5044792;28;20036;-50
2022/09/11 10:06:48;;;;;;;3.20;0.70;;;;;;;26.51;48.09;101424.41;5066845;28;20082;-53
2022/09/11 10:09:23;;;;;;;1.52;0.70;;;;;;;26.49;48.36;101431.41;5072848;28;20133;-54
2022/09/11 10:12:13;;;;;;;2.75;1.50;;;;;;;26.48;48.32;101428.78;5057845;28;20036;-48
2022/09/11 10:14:51;;;;;;;2.83;0.70;;;;;;;26.51;48.27;101427.03;5033197;28;20039;-53
2022/09/11 10:17:23;;;;;;;3.33;1.42;;;;;;;26.48;48.26;101421.75;5077241;28;20123;-50
2022/09/11 10:19:54;;;;;;;3.28;1.17;;;;;;;26.49;48.25;101422.66;5069639;28;20300;-50
2022/09/11 10:22:25;;;;;;;3.47;1.17;;;;;;;26.49;48.21;101417.38;5051155;28;20078;-48
2022/09/11 10:25:19;;;;;;;4.38;1.08;;;;;;;26.61;48.11;101419.25;5069692;28;20055;-49
2022/09/11 10:28:14;;;;;;;5.65;1.35;;;;;;;26.62;48.09;101405.22;5062693;28;20067;-48
2022/09/11 10:31:04;;;;;;;3.70;1.00;;;;;;;26.60;48.10;101405.19;5066785;28;20547;-46
2022/09/11 10:33:36;;;;;;;2.83;0.82;;;;;;;26.65;47.84;101406.13;5050432;28;20036;-48
2022/09/11 10:36:07;;;;;;;2.33;0.90;;;;;;;26.62;48.02;101405.22;5052828;28;20119;-47
2022/09/11 10:38:37;;;;;;;2.28;0.82;;;;;;;26.62;47.89;101406.09;5073337;28;20058;-49
2022/09/11 10:41:18;;;;;;;1.50;0.68;;;;;;;26.73;47.65;101410.56;5073824;28;20062;-50
2022/09/11 10:43:50;;;;;;;0.63;0.55;;;;;;;26.81;47.53;101408.91;5072212;28;20036;-49
2022/09/11 10:46:28;;;;;;;2.38;0.77;;;;;;;26.76;47.54;101408.84;5066050;28;20074;-51
2022/09/11 10:49:00;;;;;;;1.83;0.52;;;;;;;26.66;47.97;101400.00;5067908;28;20032;-55
2022/09/11 10:51:30;;;;;;;2.50;0.60;;;;;;;26.72;47.89;101393.91;5066423;28;20537;-52
2022/09/11 10:54:03;;;;;;;3.53;0.90;;;;;;;26.77;47.63;101393.94;5066941;28;20033;-53
2022/09/11 10:56:34;;;;;;;0.30;0.28;;;;;;;26.74;47.75;101392.16;5069687;28;20047;-51
2022/09/11 10:59:06;;;;;;;1.27;0.38;;;;;;;26.72;47.26;101375.47;5068773;28;20475;-53
2022/09/11 11:01:33;;;;;;;1.67;0.40;;;;;;;26.82;47.11;101379.09;5047661;28;20479;-51
2022/09/11 11:04:02;;;;;;;2.25;0.50;;;;;;;26.84;47.24;101387.91;5066235;28;20020;-52
2022/09/11 11:06:31;;;;;;;3.10;0.40;;;;;;;26.86;46.90;101388.78;5072061;28;20116;-52
2022/09/11 11:09:22;;;;;;;2.65;0.40;;;;;;;26.80;46.78;101383.47;5069414;28;20043;-50
2022/09/11 11:12:22;;;;;;;1.85;0.40;;;;;;;26.75;47.05;101383.41;5064218;28;20471;-53
2022/09/11 11:14:57;;;;;;;1.77;0.30;;;;;;;26.88;47.06;101375.63;5071929;28;20501;-51
2022/09/11 11:17:42;;;;;;;0.47;0.10;;;;;;;26.76;47.58;101372.00;5055810;28;20064;-50
2022/09/11 11:20:49;;;;;;;1.77;0.40;;;;;;;26.78;47.79;101370.28;5071484;28;20028;-49
2022/09/11 11:23:39;;;;;;;1.58;0.30;;;;;;;26.81;47.20;101372.94;5060497;28;20093;-47
2022/09/11 11:26:11;;;;;;;0.47;0.20;;;;;;;26.95;46.79;101362.50;5048566;28;20048;-51
2022/09/11 11:28:55;;;;;;;1.10;0.35;;;;;;;26.91;46.71;101367.75;5069825;28;20390;-52
2022/09/11 11:31:46;;;;;;;0.20;0.15;;;;;;;26.93;46.85;101368.66;5067227;28;20032;-50
2022/09/11 11:34:25;;;;;;;0.50;0.30;;;;;;;26.91;46.73;101370.38;5065077;28;20028;-51
2022/09/11 11:37:00;;;;;;;0.63;0.20;;;;;;;26.97;46.40;101373.06;5046654;28;20479;-51
2022/09/11 11:39:41;;;;;;;0.93;0.30;;;;;;;26.94;46.77;101373.06;5068609;28;20090;-51
2022/09/11 11:42:17;;;;;;;0.47;0.28;;;;;;;27.01;46.43;101372.19;5066222;28;20032;-52
2022/09/11 11:44:59;;;;;;;0.20;0.20;;;;;;;27.03;46.43;101381.00;5049906;28;20399;-48
2022/09/11 11:47:32;;;;;;;1.27;0.17;;;;;;;27.04;46.05;101376.63;5069026;28;20036;-51
2022/09/11 11:50:16;;;;;;;0.90;0.20;;;;;;;26.99;46.26;101379.22;5069158;28;20025;-48
2022/09/11 11:53:06;;;;;;;1.53;0.53;;;;;;;26.98;45.64;101374.81;5034522;28;20365;-51